Time,TemperatureF,DewpointF,PressureIn,WindDirection,WindDirectionDegrees,WindSpeedMPH,WindSpeedGustMPH,Humidity,HourlyPrecipIn,Conditions,Clouds,dailyrainin,SoftwareType,DateUTC
2013-06-11 00:10:00,72.2,65.3,29.78,SE,127,4.0,9.0,79,0.00,,---,0.00,VWS V14.01,2013-06-11 05:10:00,
2013-06-11 00:25:00,71.9,65.4,29.77,East,90,2.0,8.0,80,0.00,,---,0.00,VWS V14.01,2013-06-11 05:25:00,
2013-06-11 00:40:00,71.6,65.5,29.77,East,94,1.0,6.0,81,0.00,,---,0.00,VWS V14.01,2013-06-11 05:40:00,
2013-06-11 00:55:00,71.5,65.4,29.77,East,80,3.0,8.0,81,0.00,,---,0.00,VWS V14.01,2013-06-11 05:55:00,
2013-06-11 01:10:00,71.5,65.0,29.77,SE,136,5.0,9.0,80,0.00,,---,0.00,VWS V14.01,2013-06-11 06:10:00,
2013-06-11 01:25:00,71.5,65.0,29.77,SE,128,2.0,7.0,80,0.00,,---,0.00,VWS V14.01,2013-06-11 06:25:00,
2013-06-11 01:40:00,71.5,65.0,29.77,SE,140,7.0,9.0,80,0.00,,---,0.00,VWS V14.01,2013-06-11 06:40:00,
2013-06-11 01:55:00,71.4,64.6,29.76,SE,135,5.0,11.0,79,0.00,,---,0.00,VWS V14.01,2013-06-11 06:55:00,
2013-06-11 02:10:00,71.1,64.6,29.76,SE,146,4.0,9.0,80,0.00,,---,0.00,VWS V14.01,2013-06-11 07:10:00,
2013-06-11 02:25:00,70.7,64.6,29.75,SE,126,5.0,9.0,81,0.00,,---,0.00,VWS V14.01,2013-06-11 07:25:00,
2013-06-11 02:40:00,70.6,64.5,29.76,SE,128,4.0,9.0,81,0.00,,---,0.00,VWS V14.01,2013-06-11 07:40:00,
2013-06-11 02:55:00,70.5,64.4,29.76,SE,127,0.0,8.0,81,0.00,,---,0.00,VWS V14.01,2013-06-11 07:55:00,
2013-06-11 03:10:00,70.7,64.2,29.75,SE,146,7.0,9.0,80,0.00,,---,0.00,VWS V14.01,2013-06-11 08:10:00,
2013-06-11 03:25:00,70.8,64.3,29.75,SE,142,0.0,9.0,80,0.00,,---,0.00,VWS V14.01,2013-06-11 08:25:00,
2013-06-11 03:40:00,70.5,64.0,29.75,SE,140,4.0,9.0,80,0.00,,---,0.00,VWS V14.01,2013-06-11 08:40:00,
2013-06-11 03:55:00,70.2,64.1,29.75,SSE,151,5.0,9.0,81,0.00,,---,0.00,VWS V14.01,2013-06-11 08:55:00,
2013-06-11 04:10:00,70.0,64.3,29.75,SE,130,4.0,7.0,82,0.00,,---,0.00,VWS V14.01,2013-06-11 09:10:00,
2013-06-11 04:25:00,69.7,64.3,29.75,SE,128,0.0,7.0,83,0.00,,---,0.00,VWS V14.01,2013-06-11 09:25:00,
2013-06-11 04:40:00,69.6,64.2,29.74,ESE,118,2.0,6.0,83,0.00,,---,0.00,VWS V14.01,2013-06-11 09:40:00,
2013-06-11 04:55:00,69.4,64.4,29.74,SE,131,5.0,7.0,84,0.00,,---,0.00,VWS V14.01,2013-06-11 09:55:00,
2013-06-11 05:10:00,69.5,64.5,29.75,SE,133,1.0,7.0,84,0.00,,---,0.00,VWS V14.01,2013-06-11 10:10:00,
2013-06-11 05:25:00,69.6,64.9,29.76,SE,126,0.0,8.0,85,0.00,,---,0.00,VWS V14.01,2013-06-11 10:25:00,
2013-06-11 05:40:00,69.7,65.0,29.77,SE,126,2.0,6.0,85,0.00,,---,0.00,VWS V14.01,2013-06-11 10:40:00,
2013-06-11 05:55:00,69.5,65.1,29.77,SE,136,5.0,6.0,86,0.00,,---,0.00,VWS V14.01,2013-06-11 10:55:00,
2013-06-11 06:10:00,69.6,65.6,29.77,SSE,150,2.0,7.0,87,0.00,,---,0.00,VWS V14.01,2013-06-11 11:10:00,
2013-06-11 06:25:00,69.9,65.9,29.76,SSE,153,1.0,6.0,87,0.00,,---,0.00,VWS V14.01,2013-06-11 11:25:00,
2013-06-11 06:40:00,70.1,66.4,29.76,SSE,153,5.0,8.0,88,0.00,,---,0.00,VWS V14.01,2013-06-11 11:40:00,
2013-06-11 06:55:00,71.1,67.7,29.75,SSE,154,2.0,6.0,89,0.00,,---,0.00,VWS V14.01,2013-06-11 11:55:00,
2013-06-11 07:10:00,73.8,68.7,29.75,SSE,167,5.0,10.0,84,0.00,,---,0.00,VWS V14.01,2013-06-11 12:10:00,
2013-06-11 07:25:00,75.2,69.3,29.74,SSW,194,3.0,11.0,82,0.00,,---,0.00,VWS V14.01,2013-06-11 12:25:00,
2013-06-11 07:40:00,76.2,68.8,29.73,SW,227,8.0,13.0,78,0.00,,---,0.00,VWS V14.01,2013-06-11 12:40:00,
2013-06-11 07:55:00,76.4,68.7,29.73,SW,214,6.0,16.0,77,0.00,,---,0.00,VWS V14.01,2013-06-11 12:55:00,
2013-06-11 08:10:00,76.7,68.2,29.72,South,190,16.0,19.0,75,0.00,,---,0.00,VWS V14.01,2013-06-11 13:10:00,
2013-06-11 08:25:00,77.1,68.2,29.72,South,190,8.0,18.0,74,0.00,,---,0.00,VWS V14.01,2013-06-11 13:25:00,
2013-06-11 08:40:00,77.7,68.0,29.73,South,184,7.0,19.0,72,0.00,,---,0.00,VWS V14.01,2013-06-11 13:40:00,
2013-06-11 08:55:00,78.0,68.2,29.73,SSW,210,7.0,19.0,72,0.00,,---,0.00,VWS V14.01,2013-06-11 13:55:00,
2013-06-11 09:10:00,78.3,68.5,29.74,SW,216,7.0,16.0,72,0.00,,---,0.00,VWS V14.01,2013-06-11 14:10:00,
2013-06-11 09:25:00,78.7,68.9,29.74,SSW,207,5.0,11.0,72,0.00,,---,0.00,VWS V14.01,2013-06-11 14:25:00,
2013-06-11 09:40:00,78.5,67.9,29.73,SSW,213,12.0,14.0,70,0.00,,---,0.00,VWS V14.01,2013-06-11 14:40:00,
2013-06-11 09:55:00,78.7,68.1,29.74,SSW,194,6.0,15.0,70,0.00,,---,0.00,VWS V14.01,2013-06-11 14:55:00,
2013-06-11 10:10:00,78.9,67.4,29.76,SW,224,12.0,17.0,68,0.00,,---,0.00,VWS V14.01,2013-06-11 15:10:00,
2013-06-11 10:25:00,79.0,67.6,29.79,WSW,238,7.0,13.0,68,0.00,,---,0.00,VWS V14.01,2013-06-11 15:25:00,
2013-06-11 10:40:00,79.4,67.9,29.78,SSW,192,5.0,13.0,68,0.00,,---,0.00,VWS V14.01,2013-06-11 15:40:00,
2013-06-11 10:55:00,79.8,68.3,29.77,SSW,206,14.0,16.0,68,0.00,,---,0.00,VWS V14.01,2013-06-11 15:55:00,
2013-06-11 11:10:00,80.2,68.7,29.77,SSW,192,7.0,19.0,68,0.00,,---,0.00,VWS V14.01,2013-06-11 16:10:00,
2013-06-11 11:25:00,80.6,68.6,29.75,South,178,8.0,19.0,67,0.00,,---,0.00,VWS V14.01,2013-06-11 16:25:00,
2013-06-11 11:40:00,81.0,68.1,29.73,South,169,8.0,20.0,65,0.00,,---,0.00,VWS V14.01,2013-06-11 16:40:00,
2013-06-11 11:55:00,83.2,68.4,29.74,SSW,211,13.0,22.0,61,0.00,,---,0.00,VWS V14.01,2013-06-11 16:55:00,
2013-06-11 12:10:00,85.5,68.0,29.76,SW,235,10.0,22.0,56,0.00,,---,0.00,VWS V14.01,2013-06-11 17:10:00,
2013-06-11 12:25:00,86.1,67.5,29.77,SW,226,7.0,23.0,54,0.00,,---,0.00,VWS V14.01,2013-06-11 17:25:00,
2013-06-11 12:40:00,85.5,68.0,29.78,South,169,8.0,29.0,56,0.00,,---,0.00,VWS V14.01,2013-06-11 17:40:00,
2013-06-11 12:55:00,85.3,67.8,29.79,SSW,195,7.0,16.0,56,0.00,,---,0.00,VWS V14.01,2013-06-11 17:55:00,
2013-06-11 13:10:00,85.0,67.6,29.79,SW,217,6.0,14.0,56,0.00,,---,0.00,VWS V14.01,2013-06-11 18:10:00,
2013-06-11 13:25:00,85.0,67.0,29.79,SW,216,12.0,12.0,55,0.00,,---,0.00,VWS V14.01,2013-06-11 18:25:00,
2013-06-11 13:40:00,85.5,68.0,29.78,SSW,198,6.0,13.0,56,0.00,,---,0.00,VWS V14.01,2013-06-11 18:40:00,
2013-06-11 13:55:00,87.1,70.5,29.78,South,174,4.0,9.0,58,0.00,,---,0.00,VWS V14.01,2013-06-11 18:55:00,
2013-06-11 14:10:00,88.7,66.5,29.77,SSE,165,5.0,15.0,48,0.00,,---,0.00,VWS V14.01,2013-06-11 19:10:00,
2013-06-11 14:25:00,88.2,67.8,29.77,South,173,8.0,12.0,51,0.00,,---,0.00,VWS V14.01,2013-06-11 19:25:00,
2013-06-11 14:40:00,87.9,68.1,29.77,South,186,4.0,13.0,52,0.00,,---,0.00,VWS V14.01,2013-06-11 19:40:00,
2013-06-11 14:55:00,88.5,69.8,29.79,SSW,193,1.0,12.0,54,0.00,,---,0.00,VWS V14.01,2013-06-11 19:55:00,
2013-06-11 15:10:00,89.1,68.1,29.78,South,190,5.0,10.0,50,0.00,,---,0.00,VWS V14.01,2013-06-11 20:10:00,
2013-06-11 15:25:00,88.5,69.8,29.77,South,172,1.0,8.0,54,0.00,,---,0.00,VWS V14.01,2013-06-11 20:25:00,
2013-06-11 15:40:00,88.9,70.1,29.77,SSW,200,5.0,8.0,54,0.00,,---,0.00,VWS V14.01,2013-06-11 20:40:00,
2013-06-11 15:55:00,90.0,68.9,29.77,SSW,192,4.0,10.0,50,0.00,,---,0.00,VWS V14.01,2013-06-11 20:55:00,
2013-06-11 16:10:00,91.3,70.1,29.76,South,180,3.0,13.0,50,0.00,,---,0.00,VWS V14.01,2013-06-11 21:10:00,
2013-06-11 16:25:00,91.5,69.1,29.76,SW,215,5.0,11.0,48,0.00,,---,0.00,VWS V14.01,2013-06-11 21:25:00,
2013-06-11 16:40:00,92.0,68.3,29.75,South,186,3.0,13.0,46,0.00,,---,0.00,VWS V14.01,2013-06-11 21:40:00,
2013-06-11 16:55:00,92.1,67.7,29.75,SSE,157,13.0,15.0,45,0.00,,---,0.00,VWS V14.01,2013-06-11 21:55:00,
2013-06-11 17:10:00,92.1,69.0,29.74,SSE,149,5.0,15.0,47,0.00,,---,0.00,VWS V14.01,2013-06-11 22:10:00,
2013-06-11 17:25:00,91.7,68.6,29.74,South,175,4.0,17.0,47,0.00,,---,0.00,VWS V14.01,2013-06-11 22:25:00,
2013-06-11 17:40:00,91.8,68.1,29.74,SSE,166,5.0,12.0,46,0.00,,---,0.00,VWS V14.01,2013-06-11 22:40:00,
2013-06-11 17:55:00,91.4,68.3,29.74,South,172,9.0,10.0,47,0.00,,---,0.00,VWS V14.01,2013-06-11 22:55:00,
2013-06-11 18:10:00,90.9,69.7,29.73,South,171,5.0,10.0,50,0.00,,---,0.00,VWS V14.01,2013-06-11 23:10:00,
2013-06-11 18:25:00,90.1,69.0,29.72,South,169,5.0,11.0,50,0.00,,---,0.00,VWS V14.01,2013-06-11 23:25:00,
2013-06-11 18:40:00,89.0,68.5,29.70,South,171,5.0,10.0,51,0.00,,---,0.00,VWS V14.01,2013-06-11 23:40:00,
2013-06-11 18:55:00,88.1,67.1,29.69,South,169,7.0,13.0,50,0.00,,---,0.00,VWS V14.01,2013-06-11 23:55:00,
2013-06-11 19:10:00,88.1,67.7,29.68,SSE,166,6.0,15.0,51,0.00,,---,0.00,VWS V14.01,2013-06-12 00:10:00,
2013-06-11 19:25:00,87.9,68.1,29.69,South,180,10.0,13.0,52,0.00,,---,0.00,VWS V14.01,2013-06-12 00:25:00,
2013-06-11 19:40:00,87.4,68.2,29.68,South,186,8.0,14.0,53,0.00,,---,0.00,VWS V14.01,2013-06-12 00:40:00,
2013-06-11 19:55:00,86.6,68.0,29.68,South,175,2.0,15.0,54,0.00,,---,0.00,VWS V14.01,2013-06-12 00:55:00,
2013-06-11 20:10:00,85.7,66.6,29.68,SSE,167,9.0,19.0,53,0.00,,---,0.00,VWS V14.01,2013-06-12 01:10:00,
2013-06-11 20:25:00,85.2,65.6,29.68,SSE,155,7.0,15.0,52,0.00,,---,0.00,VWS V14.01,2013-06-12 01:25:00,
2013-06-11 20:40:00,85.0,66.5,29.68,South,188,6.0,13.0,54,0.00,,---,0.00,VWS V14.01,2013-06-12 01:40:00,
2013-06-11 20:55:00,84.6,67.2,29.68,South,169,12.0,16.0,56,0.00,,---,0.00,VWS V14.01,2013-06-12 01:55:00,
2013-06-11 21:10:00,84.5,67.1,29.69,South,188,7.0,18.0,56,0.00,,---,0.00,VWS V14.01,2013-06-12 02:10:00,
2013-06-11 21:25:00,83.6,66.8,29.70,South,175,5.0,13.0,57,0.00,,---,0.00,VWS V14.01,2013-06-12 02:25:00,
2013-06-11 21:40:00,83.0,67.2,29.70,South,173,5.0,15.0,59,0.00,,---,0.00,VWS V14.01,2013-06-12 02:40:00,
2013-06-11 21:55:00,82.7,67.4,29.71,South,174,7.0,15.0,60,0.00,,---,0.00,VWS V14.01,2013-06-12 02:55:00,
2013-06-11 22:10:00,82.5,67.7,29.72,South,184,5.0,14.0,61,0.00,,---,0.00,VWS V14.01,2013-06-12 03:10:00,
2013-06-11 22:25:00,82.4,68.1,29.72,South,172,5.0,12.0,62,0.00,,---,0.00,VWS V14.01,2013-06-12 03:25:00,
2013-06-11 22:40:00,82.1,68.3,29.73,SSE,165,5.0,11.0,63,0.00,,---,0.00,VWS V14.01,2013-06-12 03:40:00,
2013-06-11 22:55:00,81.8,68.4,29.73,SSE,168,7.0,13.0,64,0.00,,---,0.00,VWS V14.01,2013-06-12 03:55:00,
2013-06-11 23:10:00,81.5,69.1,29.73,SSE,155,5.0,13.0,66,0.00,,---,0.00,VWS V14.01,2013-06-12 04:10:00,
2013-06-11 23:25:00,80.8,69.7,29.73,South,189,8.0,12.0,69,0.00,,---,0.00,VWS V14.01,2013-06-12 04:25:00,
2013-06-11 23:40:00,80.9,70.2,29.72,SE,146,10.0,13.0,70,0.00,,---,0.00,VWS V14.01,2013-06-12 04:40:00,
2013-06-11 23:55:00,81.2,70.9,29.73,South,175,9.0,20.0,71,0.00,,---,0.00,VWS V14.01,2013-06-12 04:55:00,